sensor_id;sensor_type;location;lat;lon;timestamp;temperature;humidity
70321;DHT22;61127;55.826;37.046;2023-05-15T00:02:05;8.38;57.58
70321;DHT22;61127;55.826;37.046;2023-05-15T00:04:31;8.32;57.74
70321;DHT22;61127;55.826;37.046;2023-05-15T00:06:57;8.27;57.77
70321;DHT22;61127;55.826;37.046;2023-05-15T00:09:23;8.22;58.03
70321;DHT22;61127;55.826;37.046;2023-05-15T00:11:49;8.16;58.22
70321;DHT22;61127;55.826;37.046;2023-05-15T00:14:15;8.12;58.22
70321;DHT22;61127;55.826;37.046;2023-05-15T00:16:42;8.07;58.44
70321;DHT22;61127;55.826;37.046;2023-05-15T00:19:09;8.04;58.70
70321;DHT22;61127;55.826;37.046;2023-05-15T00:21:36;8.01;58.42
70321;DHT22;61127;55.826;37.046;2023-05-15T00:24:02;7.99;58.53
70321;DHT22;61127;55.826;37.046;2023-05-15T00:26:28;7.97;58.80
70321;DHT22;61127;55.826;37.046;2023-05-15T00:28:56;7.93;59.12
70321;DHT22;61127;55.826;37.046;2023-05-15T00:31:23;7.91;59.01
70321;DHT22;61127;55.826;37.046;2023-05-15T00:33:49;7.91;58.70
70321;DHT22;61127;55.826;37.046;2023-05-15T00:36:16;7.90;58.88
70321;DHT22;61127;55.826;37.046;2023-05-15T00:38:42;7.89;59.03
70321;DHT22;61127;55.826;37.046;2023-05-15T00:41:09;7.89;58.90
70321;DHT22;61127;55.826;37.046;2023-05-15T00:43:38;7.87;58.99
70321;DHT22;61127;55.826;37.046;2023-05-15T00:46:06;7.87;58.83
70321;DHT22;61127;55.826;37.046;2023-05-15T00:48:32;7.87;59.16
70321;DHT22;61127;55.826;37.046;2023-05-15T00:50:58;7.87;58.96
70321;DHT22;61127;55.826;37.046;2023-05-15T00:53:28;7.87;59.70
70321;DHT22;61127;55.826;37.046;2023-05-15T00:55:57;7.86;59.31
70321;DHT22;61127;55.826;37.046;2023-05-15T00:58:26;7.83;59.57
70321;DHT22;61127;55.826;37.046;2023-05-15T01:00:52;7.83;59.28
70321;DHT22;61127;55.826;37.046;2023-05-15T01:03:19;7.81;59.42
70321;DHT22;61127;55.826;37.046;2023-05-15T01:05:45;7.78;59.51
70321;DHT22;61127;55.826;37.046;2023-05-15T01:08:30;7.76;59.90
70321;DHT22;61127;55.826;37.046;2023-05-15T01:10:59;7.73;59.83
70321;DHT22;61127;55.826;37.046;2023-05-15T01:13:27;7.71;59.79
70321;DHT22;61127;55.826;37.046;2023-05-15T01:15:54;7.71;60.41
70321;DHT22;61127;55.826;37.046;2023-05-15T01:18:20;7.71;59.71
70321;DHT22;61127;55.826;37.046;2023-05-15T01:25:45;7.63;60.42
70321;DHT22;61127;55.826;37.046;2023-05-15T01:28:23;7.62;60.28
70321;DHT22;61127;55.826;37.046;2023-05-15T01:30:53;7.61;60.44
70321;DHT22;61127;55.826;37.046;2023-05-15T01:33:31;7.64;60.60
70321;DHT22;61127;55.826;37.046;2023-05-15T01:36:11;7.64;60.78
70321;DHT22;61127;55.826;37.046;2023-05-15T01:38:45;7.65;60.54
70321;DHT22;61127;55.826;37.046;2023-05-15T01:41:25;7.65;60.57
70321;DHT22;61127;55.826;37.046;2023-05-15T01:43:59;7.68;60.50
70321;DHT22;61127;55.826;37.046;2023-05-15T01:46:28;7.69;60.61
70321;DHT22;61127;55.826;37.046;2023-05-15T01:48:57;7.72;60.60
70321;DHT22;61127;55.826;37.046;2023-05-15T01:51:26;7.74;60.51
70321;DHT22;61127;55.826;37.046;2023-05-15T01:53:56;7.78;60.31
70321;DHT22;61127;55.826;37.046;2023-05-15T01:56:25;7.82;60.44
70321;DHT22;61127;55.826;37.046;2023-05-15T01:58:52;7.86;61.13
70321;DHT22;61127;55.826;37.046;2023-05-15T02:01:19;7.91;60.73
70321;DHT22;61127;55.826;37.046;2023-05-15T02:03:46;7.97;60.25
70321;DHT22;61127;55.826;37.046;2023-05-15T02:06:12;8.03;60.36
70321;DHT22;61127;55.826;37.046;2023-05-15T02:08:39;8.07;60.21
70321;DHT22;61127;55.826;37.046;2023-05-15T02:11:07;8.14;60.18
70321;DHT22;61127;55.826;37.046;2023-05-15T02:13:34;8.19;59.97
70321;DHT22;61127;55.826;37.046;2023-05-15T02:16:01;8.26;59.74
70321;DHT22;61127;55.826;37.046;2023-05-15T02:18:27;8.33;59.80
70321;DHT22;61127;55.826;37.046;2023-05-15T02:21:16;8.41;59.61
70321;DHT22;61127;55.826;37.046;2023-05-15T02:23:42;8.47;59.48
70321;DHT22;61127;55.826;37.046;2023-05-15T02:26:35;8.56;59.59
70321;DHT22;61127;55.826;37.046;2023-05-15T02:34:38;8.79;59.32
70321;DHT22;61127;55.826;37.046;2023-05-15T02:37:13;8.89;58.89
70321;DHT22;61127;55.826;37.046;2023-05-15T02:39:42;8.95;58.68
70321;DHT22;61127;55.826;37.046;2023-05-15T02:42:12;9.01;58.62
70321;DHT22;61127;55.826;37.046;2023-05-15T02:44:39;9.07;58.82
70321;DHT22;61127;55.826;37.046;2023-05-15T02:47:07;9.18;58.70
70321;DHT22;61127;55.826;37.046;2023-05-15T02:49:33;9.23;58.90
70321;DHT22;61127;55.826;37.046;2023-05-15T02:52:00;9.33;58.64
70321;DHT22;61127;55.826;37.046;2023-05-15T02:54:26;9.40;58.44
70321;DHT22;61127;55.826;37.046;2023-05-15T02:56:52;9.50;58.37
70321;DHT22;61127;55.826;37.046;2023-05-15T02:59:18;9.56;58.54
70321;DHT22;61127;55.826;37.046;2023-05-15T03:01:45;9.66;58.32
70321;DHT22;61127;55.826;37.046;2023-05-15T03:04:13;9.74;58.23
70321;DHT22;61127;55.826;37.046;2023-05-15T03:06:39;9.83;58.26
70321;DHT22;61127;55.826;37.046;2023-05-15T03:09:05;9.91;58.11
70321;DHT22;61127;55.826;37.046;2023-05-15T03:11:32;10.03;58.22
70321;DHT22;61127;55.826;37.046;2023-05-15T03:13:57;10.12;57.39
70321;DHT22;61127;55.826;37.046;2023-05-15T03:16:27;10.22;57.42
70321;DHT22;61127;55.826;37.046;2023-05-15T03:18:53;10.31;57.58
70321;DHT22;61127;55.826;37.046;2023-05-15T03:21:20;10.40;57.19
70321;DHT22;61127;55.826;37.046;2023-05-15T03:23:46;10.50;57.45
70321;DHT22;61127;55.826;37.046;2023-05-15T03:26:12;10.58;57.27
70321;DHT22;61127;55.826;37.046;2023-05-15T03:28:38;10.66;55.87
70321;DHT22;61127;55.826;37.046;2023-05-15T03:31:04;10.73;56.87
70321;DHT22;61127;55.826;37.046;2023-05-15T03:33:30;10.83;55.87
70321;DHT22;61127;55.826;37.046;2023-05-15T03:35:56;10.94;56.90
70321;DHT22;61127;55.826;37.046;2023-05-15T03:38:22;11.00;56.76
70321;DHT22;61127;55.826;37.046;2023-05-15T03:40:48;11.09;55.42
70321;DHT22;61127;55.826;37.046;2023-05-15T03:43:15;11.15;54.84
70321;DHT22;61127;55.826;37.046;2023-05-15T03:45:41;11.24;56.25
70321;DHT22;61127;55.826;37.046;2023-05-15T03:48:07;11.30;54.67
70321;DHT22;61127;55.826;37.046;2023-05-15T03:50:33;11.38;54.55
70321;DHT22;61127;55.826;37.046;2023-05-15T03:52:59;11.36;56.24
70321;DHT22;61127;55.826;37.046;2023-05-15T03:55:25;11.39;55.20
70321;DHT22;61127;55.826;37.046;2023-05-15T03:57:51;11.48;55.24
70321;DHT22;61127;55.826;37.046;2023-05-15T04:00:17;11.59;55.81
70321;DHT22;61127;55.826;37.046;2023-05-15T04:02:43;11.70;54.75
70321;DHT22;61127;55.826;37.046;2023-05-15T04:05:09;11.82;55.29
70321;DHT22;61127;55.826;37.046;2023-05-15T04:07:36;11.93;54.75
70321;DHT22;61127;55.826;37.046;2023-05-15T04:10:02;12.06;55.55
70321;DHT22;61127;55.826;37.046;2023-05-15T04:12:34;12.22;54.78
70321;DHT22;61127;55.826;37.046;2023-05-15T04:15:17;12.41;55.16
70321;DHT22;61127;55.826;37.046;2023-05-15T04:17:45;12.59;54.46
70321;DHT22;61127;55.826;37.046;2023-05-15T04:20:14;0.00;0.00
70321;DHT22;61127;55.826;37.046;2023-05-15T04:22:41;0.00;0.00
70321;DHT22;61127;55.826;37.046;2023-05-15T04:25:07;0.00;0.00
70321;DHT22;61127;55.826;37.046;2023-05-15T04:27:34;0.00;0.00
70321;DHT22;61127;55.826;37.046;2023-05-15T04:30:01;13.69;52.13
70321;DHT22;61127;55.826;37.046;2023-05-15T04:32:30;13.89;52.52
70321;DHT22;61127;55.826;37.046;2023-05-15T04:34:59;14.08;51.84
70321;DHT22;61127;55.826;37.046;2023-05-15T04:37:26;14.32;51.20
70321;DHT22;61127;55.826;37.046;2023-05-15T04:39:52;14.56;50.43
70321;DHT22;61127;55.826;37.046;2023-05-15T04:42:18;14.79;49.92
70321;DHT22;61127;55.826;37.046;2023-05-15T04:44:44;14.95;49.33
70321;DHT22;61127;55.826;37.046;2023-05-15T04:47:11;15.15;49.05
70321;DHT22;61127;55.826;37.046;2023-05-15T04:49:39;15.34;48.64
70321;DHT22;61127;55.826;37.046;2023-05-15T04:52:05;15.61;48.02
70321;DHT22;61127;55.826;37.046;2023-05-15T04:54:31;15.80;47.86
70321;DHT22;61127;55.826;37.046;2023-05-15T04:56:57;16.03;46.71
70321;DHT22;61127;55.826;37.046;2023-05-15T04:59:24;16.24;46.95
70321;DHT22;61127;55.826;37.046;2023-05-15T05:01:50;16.50;46.61
70321;DHT22;61127;55.826;37.046;2023-05-15T05:04:16;16.76;45.13
70321;DHT22;61127;55.826;37.046;2023-05-15T05:06:46;16.95;44.90
70321;DHT22;61127;55.826;37.046;2023-05-15T05:09:12;17.19;45.28
70321;DHT22;61127;55.826;37.046;2023-05-15T05:11:39;17.39;44.47
70321;DHT22;61127;55.826;37.046;2023-05-15T05:14:12;17.62;44.03
70321;DHT22;61127;55.826;37.046;2023-05-15T05:16:38;17.91;42.89
70321;DHT22;61127;55.826;37.046;2023-05-15T05:19:04;18.11;41.52
70321;DHT22;61127;55.826;37.046;2023-05-15T05:21:31;18.32;41.92
70321;DHT22;61127;55.826;37.046;2023-05-15T05:23:57;18.55;41.33
70321;DHT22;61127;55.826;37.046;2023-05-15T05:26:24;18.71;37.39
70321;DHT22;61127;55.826;37.046;2023-05-15T05:28:51;18.76;40.84
70321;DHT22;61127;55.826;37.046;2023-05-15T05:31:19;18.92;38.94
70321;DHT22;61127;55.826;37.046;2023-05-15T05:33:46;19.10;38.77
70321;DHT22;61127;55.826;37.046;2023-05-15T05:36:14;19.23;39.33
70321;DHT22;61127;55.826;37.046;2023-05-15T05:38:40;19.46;38.79
70321;DHT22;61127;55.826;37.046;2023-05-15T05:41:07;19.69;40.35
70321;DHT22;61127;55.826;37.046;2023-05-15T05:43:33;19.89;38.68
70321;DHT22;61127;55.826;37.046;2023-05-15T05:45:59;20.17;38.43
70321;DHT22;61127;55.826;37.046;2023-05-15T05:48:26;20.31;36.66
70321;DHT22;61127;55.826;37.046;2023-05-15T05:50:53;20.20;30.76
70321;DHT22;61127;55.826;37.046;2023-05-15T05:57:26;20.05;34.89
70321;DHT22;61127;55.826;37.046;2023-05-15T05:59:52;20.29;35.15
70321;DHT22;61127;55.826;37.046;2023-05-15T07:14:53;23.70;26.08
70321;DHT22;61127;55.826;37.046;2023-05-15T07:17:21;24.04;26.56
70321;DHT22;61127;55.826;37.046;2023-05-15T07:19:47;24.31;25.61
70321;DHT22;61127;55.826;37.046;2023-05-15T07:22:13;24.32;26.10
70321;DHT22;61127;55.826;37.046;2023-05-15T07:24:39;24.79;24.16
70321;DHT22;61127;55.826;37.046;2023-05-15T07:27:05;24.79;23.79
70321;DHT22;61127;55.826;37.046;2023-05-15T07:29:31;25.05;25.58
70321;DHT22;61127;55.826;37.046;2023-05-15T07:31:57;25.52;24.90
70321;DHT22;61127;55.826;37.046;2023-05-15T07:34:23;26.07;24.60
70321;DHT22;61127;55.826;37.046;2023-05-15T07:36:49;26.62;20.23
70321;DHT22;61127;55.826;37.046;2023-05-15T07:39:15;26.86;24.26
70321;DHT22;61127;55.826;37.046;2023-05-15T07:41:41;27.13;23.61
70321;DHT22;61127;55.826;37.046;2023-05-15T07:44:07;27.23;23.64
70321;DHT22;61127;55.826;37.046;2023-05-15T07:46:33;27.32;21.82
70321;DHT22;61127;55.826;37.046;2023-05-15T07:48:59;27.54;22.36
70321;DHT22;61127;55.826;37.046;2023-05-15T07:51:25;27.55;22.05
70321;DHT22;61127;55.826;37.046;2023-05-15T07:54:07;27.16;21.84
70321;DHT22;61127;55.826;37.046;2023-05-15T07:56:33;27.60;21.72
70321;DHT22;61127;55.826;37.046;2023-05-15T07:59:11;27.96;22.59
70321;DHT22;61127;55.826;37.046;2023-05-15T08:01:37;28.56;21.83
70321;DHT22;61127;55.826;37.046;2023-05-15T08:04:23;29.17;21.28
70321;DHT22;61127;55.826;37.046;2023-05-15T08:06:49;29.70;20.39
70321;DHT22;61127;55.826;37.046;2023-05-15T08:09:18;29.71;19.26
70321;DHT22;61127;55.826;37.046;2023-05-15T08:11:47;29.81;17.97
70321;DHT22;61127;55.826;37.046;2023-05-15T08:14:13;29.88;20.35
70321;DHT22;61127;55.826;37.046;2023-05-15T08:16:39;30.04;19.38
70321;DHT22;61127;55.826;37.046;2023-05-15T08:19:05;30.26;17.99
70321;DHT22;61127;55.826;37.046;2023-05-15T08:21:32;30.53;15.15
70321;DHT22;61127;55.826;37.046;2023-05-15T08:23:59;30.76;17.97
70321;DHT22;61127;55.826;37.046;2023-05-15T08:26:26;30.76;18.40
70321;DHT22;61127;55.826;37.046;2023-05-15T08:28:56;30.75;14.15
70321;DHT22;61127;55.826;37.046;2023-05-15T08:31:22;30.39;16.13
70321;DHT22;61127;55.826;37.046;2023-05-15T08:33:48;30.38;16.62
70321;DHT22;61127;55.826;37.046;2023-05-15T08:36:15;31.01;16.34
70321;DHT22;61127;55.826;37.046;2023-05-15T08:38:43;31.74;16.18
70321;DHT22;61127;55.826;37.046;2023-05-15T08:41:30;32.60;16.47
70321;DHT22;61127;55.826;37.046;2023-05-15T08:44:05;32.69;13.49
70321;DHT22;61127;55.826;37.046;2023-05-15T08:46:33;33.11;15.17
70321;DHT22;61127;55.826;37.046;2023-05-15T08:49:10;33.59;14.27
70321;DHT22;61127;55.826;37.046;2023-05-15T08:51:39;33.70;15.69
70321;DHT22;61127;55.826;37.046;2023-05-15T08:54:07;33.62;14.58
70321;DHT22;61127;55.826;37.046;2023-05-15T08:56:35;32.97;12.90
70321;DHT22;61127;55.826;37.046;2023-05-15T08:59:02;32.56;15.32
70321;DHT22;61127;55.826;37.046;2023-05-15T09:01:29;31.98;15.63
70321;DHT22;61127;55.826;37.046;2023-05-15T09:03:55;30.70;14.36
70321;DHT22;61127;55.826;37.046;2023-05-15T09:06:22;29.37;15.85
70321;DHT22;61127;55.826;37.046;2023-05-15T09:08:51;29.26;16.60
70321;DHT22;61127;55.826;37.046;2023-05-15T09:11:25;30.51;16.91
70321;DHT22;61127;55.826;37.046;2023-05-15T09:13:52;31.44;14.79
70321;DHT22;61127;55.826;37.046;2023-05-15T09:16:21;32.72;14.90
70321;DHT22;61127;55.826;37.046;2023-05-15T09:18:47;33.06;14.16
70321;DHT22;61127;55.826;37.046;2023-05-15T09:21:22;33.28;12.71
70321;DHT22;61127;55.826;37.046;2023-05-15T09:23:50;33.92;11.41
70321;DHT22;61127;55.826;37.046;2023-05-15T09:26:17;34.05;11.12
70321;DHT22;61127;55.826;37.046;2023-05-15T09:28:43;34.57;12.97
70321;DHT22;61127;55.826;37.046;2023-05-15T09:31:12;35.03;12.46
70321;DHT22;61127;55.826;37.046;2023-05-15T09:33:39;35.31;11.68
70321;DHT22;61127;55.826;37.046;2023-05-15T09:36:08;35.71;12.14
70321;DHT22;61127;55.826;37.046;2023-05-15T09:38:42;36.42;11.46
70321;DHT22;61127;55.826;37.046;2023-05-15T09:41:08;36.44;8.79
70321;DHT22;61127;55.826;37.046;2023-05-15T09:43:36;36.59;12.20
70321;DHT22;61127;55.826;37.046;2023-05-15T09:46:02;37.44;11.47
70321;DHT22;61127;55.826;37.046;2023-05-15T09:48:29;37.78;10.80
70321;DHT22;61127;55.826;37.046;2023-05-15T09:50:55;38.51;10.93
70321;DHT22;61127;55.826;37.046;2023-05-15T09:53:22;38.55;9.48
70321;DHT22;61127;55.826;37.046;2023-05-15T09:55:49;38.78;9.58
70321;DHT22;61127;55.826;37.046;2023-05-15T09:58:17;39.45;10.27
70321;DHT22;61127;55.826;37.046;2023-05-15T10:00:45;39.63;9.40
70321;DHT22;61127;55.826;37.046;2023-05-15T10:03:12;38.83;7.88
70321;DHT22;61127;55.826;37.046;2023-05-15T10:05:39;39.07;9.75
70321;DHT22;61127;55.826;37.046;2023-05-15T10:08:05;39.24;8.97
70321;DHT22;61127;55.826;37.046;2023-05-15T10:10:31;39.27;9.24
70321;DHT22;61127;55.826;37.046;2023-05-15T10:12:59;39.62;9.14
70321;DHT22;61127;55.826;37.046;2023-05-15T10:15:31;40.18;6.54
70321;DHT22;61127;55.826;37.046;2023-05-15T10:17:58;39.24;5.01
70321;DHT22;61127;55.826;37.046;2023-05-15T10:20:25;39.53;7.54
70321;DHT22;61127;55.826;37.046;2023-05-15T10:22:55;40.16;7.54
70321;DHT22;61127;55.826;37.046;2023-05-15T10:27:56;39.61;7.26
70321;DHT22;61127;55.826;37.046;2023-05-15T10:30:23;39.91;6.87
70321;DHT22;61127;55.826;37.046;2023-05-15T10:32:51;40.83;7.88
70321;DHT22;61127;55.826;37.046;2023-05-15T10:35:17;41.66;5.47
70321;DHT22;61127;55.826;37.046;2023-05-15T10:37:48;0.00;0.00
70321;DHT22;61127;55.826;37.046;2023-05-15T10:40:15;0.00;0.00
70321;DHT22;61127;55.826;37.046;2023-05-15T10:42:44;0.00;0.00
70321;DHT22;61127;55.826;37.046;2023-05-15T10:45:10;0.00;0.00
70321;DHT22;61127;55.826;37.046;2023-05-15T10:47:37;0.00;0.00
70321;DHT22;61127;55.826;37.046;2023-05-15T10:50:05;0.00;0.00
70321;DHT22;61127;55.826;37.046;2023-05-15T10:52:32;0.00;0.00
70321;DHT22;61127;55.826;37.046;2023-05-15T10:54:59;0.00;0.00
70321;DHT22;61127;55.826;37.046;2023-05-15T10:57:29;42.67;4.85
70321;DHT22;61127;55.826;37.046;2023-05-15T10:59:55;42.97;5.51
70321;DHT22;61127;55.826;37.046;2023-05-15T11:02:26;43.81;5.40
70321;DHT22;61127;55.826;37.046;2023-05-15T11:05:01;0.00;0.00
70321;DHT22;61127;55.826;37.046;2023-05-15T11:07:32;0.00;0.00
70321;DHT22;61127;55.826;37.046;2023-05-15T11:09:58;0.00;0.00
70321;DHT22;61127;55.826;37.046;2023-05-15T11:12:24;0.00;0.00
70321;DHT22;61127;55.826;37.046;2023-05-15T11:17:16;0.00;0.00
70321;DHT22;61127;55.826;37.046;2023-05-15T11:25:07;0.00;0.00
70321;DHT22;61127;55.826;37.046;2023-05-15T11:27:41;0.00;0.00
70321;DHT22;61127;55.826;37.046;2023-05-15T11:30:15;0.00;0.00
70321;DHT22;61127;55.826;37.046;2023-05-15T11:40:26;44.26;3.61
70321;DHT22;61127;55.826;37.046;2023-05-15T11:43:03;45.24;1.82
70321;DHT22;61127;55.826;37.046;2023-05-15T11:45:31;45.73;2.37
70321;DHT22;61127;55.826;37.046;2023-05-15T11:48:02;46.42;2.96
70321;DHT22;61127;55.826;37.046;2023-05-15T11:50:29;47.01;2.28
70321;DHT22;61127;55.826;37.046;2023-05-15T11:52:56;47.08;2.08
70321;DHT22;61127;55.826;37.046;2023-05-15T11:55:24;47.47;2.78
70321;DHT22;61127;55.826;37.046;2023-05-15T11:57:50;48.12;3.06
70321;DHT22;61127;55.826;37.046;2023-05-15T12:00:16;48.93;2.57
70321;DHT22;61127;55.826;37.046;2023-05-15T12:02:42;0.00;0.00
70321;DHT22;61127;55.826;37.046;2023-05-15T12:05:09;0.00;0.00
70321;DHT22;61127;55.826;37.046;2023-05-15T12:07:37;0.00;0.00
70321;DHT22;61127;55.826;37.046;2023-05-15T12:10:04;0.00;0.00
70321;DHT22;61127;55.826;37.046;2023-05-15T12:12:31;0.00;0.00
70321;DHT22;61127;55.826;37.046;2023-05-15T12:14:57;48.97;1.73
70321;DHT22;61127;55.826;37.046;2023-05-15T12:17:26;47.38;2.06
70321;DHT22;61127;55.826;37.046;2023-05-15T12:19:54;46.74;0.48
70321;DHT22;61127;55.826;37.046;2023-05-15T12:22:20;46.10;2.19
70321;DHT22;61127;55.826;37.046;2023-05-15T12:24:46;46.19;2.62
70321;DHT22;61127;55.826;37.046;2023-05-15T12:27:13;46.22;2.48
70321;DHT22;61127;55.826;37.046;2023-05-15T12:29:41;46.63;2.51
70321;DHT22;61127;55.826;37.046;2023-05-15T12:32:08;46.51;2.49
70321;DHT22;61127;55.826;37.046;2023-05-15T12:34:36;46.86;2.32
70321;DHT22;61127;55.826;37.046;2023-05-15T12:37:02;47.48;2.48
70321;DHT22;61127;55.826;37.046;2023-05-15T12:39:28;47.99;2.66
70321;DHT22;61127;55.826;37.046;2023-05-15T12:41:56;47.79;2.77
70321;DHT22;61127;55.826;37.046;2023-05-15T12:44:24;47.54;1.78
70321;DHT22;61127;55.826;37.046;2023-05-15T12:46:52;47.48;2.03
70321;DHT22;61127;55.826;37.046;2023-05-15T12:49:22;48.07;2.00
70321;DHT22;61127;55.826;37.046;2023-05-15T12:51:48;48.36;1.91
70321;DHT22;61127;55.826;37.046;2023-05-15T12:54:18;47.64;1.66
70321;DHT22;61127;55.826;37.046;2023-05-15T12:56:46;47.16;2.06
70321;DHT22;61127;55.826;37.046;2023-05-15T12:59:13;46.47;1.67
70321;DHT22;61127;55.826;37.046;2023-05-15T13:01:40;46.06;1.91
70321;DHT22;61127;55.826;37.046;2023-05-15T13:04:07;46.32;2.09
70321;DHT22;61127;55.826;37.046;2023-05-15T13:06:37;46.09;1.40
70321;DHT22;61127;55.826;37.046;2023-05-15T13:09:03;45.62;1.56
70321;DHT22;61127;55.826;37.046;2023-05-15T13:11:29;45.62;1.61
70321;DHT22;61127;55.826;37.046;2023-05-15T13:13:59;45.64;1.82
70321;DHT22;61127;55.826;37.046;2023-05-15T13:16:26;44.71;2.34
70321;DHT22;61127;55.826;37.046;2023-05-15T13:18:55;44.10;1.75
70321;DHT22;61127;55.826;37.046;2023-05-15T13:21:22;44.00;2.00
70321;DHT22;61127;55.826;37.046;2023-05-15T13:23:50;43.90;2.04
70321;DHT22;61127;55.826;37.046;2023-05-15T13:26:16;43.10;1.72
70321;DHT22;61127;55.826;37.046;2023-05-15T13:28:42;42.69;1.86
70321;DHT22;61127;55.826;37.046;2023-05-15T13:31:08;41.76;1.64
70321;DHT22;61127;55.826;37.046;2023-05-15T13:33:34;40.41;1.94
70321;DHT22;61127;55.826;37.046;2023-05-15T13:36:00;38.17;2.66
70321;DHT22;61127;55.826;37.046;2023-05-15T13:38:26;36.37;3.96
70321;DHT22;61127;55.826;37.046;2023-05-15T13:40:52;35.35;4.60
70321;DHT22;61127;55.826;37.046;2023-05-15T13:43:18;34.62;5.28
70321;DHT22;61127;55.826;37.046;2023-05-15T13:45:44;34.05;5.89
70321;DHT22;61127;55.826;37.046;2023-05-15T13:48:10;33.58;6.57
70321;DHT22;61127;55.826;37.046;2023-05-15T13:50:37;32.87;6.86
70321;DHT22;61127;55.826;37.046;2023-05-15T13:53:04;32.05;7.36
70321;DHT22;61127;55.826;37.046;2023-05-15T13:55:31;31.39;7.91
70321;DHT22;61127;55.826;37.046;2023-05-15T13:57:57;30.59;8.20
70321;DHT22;61127;55.826;37.046;2023-05-15T14:00:23;30.07;8.60
70321;DHT22;61127;55.826;37.046;2023-05-15T14:02:49;29.72;9.17
70321;DHT22;61127;55.826;37.046;2023-05-15T14:05:16;29.17;9.13
70321;DHT22;61127;55.826;37.046;2023-05-15T14:07:43;28.57;10.41
70321;DHT22;61127;55.826;37.046;2023-05-15T14:10:09;28.14;10.27
70321;DHT22;61127;55.826;37.046;2023-05-15T14:12:36;27.64;9.90
70321;DHT22;61127;55.826;37.046;2023-05-15T14:15:03;27.17;10.94
70321;DHT22;61127;55.826;37.046;2023-05-15T14:17:33;26.70;10.87
70321;DHT22;61127;55.826;37.046;2023-05-15T14:20:00;26.36;10.54
70321;DHT22;61127;55.826;37.046;2023-05-15T14:22:27;25.96;13.84
70321;DHT22;61127;55.826;37.046;2023-05-15T14:24:53;25.74;12.49
70321;DHT22;61127;55.826;37.046;2023-05-15T14:27:19;25.56;13.52
70321;DHT22;61127;55.826;37.046;2023-05-15T14:29:45;25.35;13.36
70321;DHT22;61127;55.826;37.046;2023-05-15T14:32:13;25.12;13.26
70321;DHT22;61127;55.826;37.046;2023-05-15T14:34:40;24.90;13.29
70321;DHT22;61127;55.826;37.046;2023-05-15T14:37:06;24.66;14.20
70321;DHT22;61127;55.826;37.046;2023-05-15T14:39:32;24.45;13.85
70321;DHT22;61127;55.826;37.046;2023-05-15T14:41:57;24.24;14.24
70321;DHT22;61127;55.826;37.046;2023-05-15T14:44:23;24.08;14.37
70321;DHT22;61127;55.826;37.046;2023-05-15T14:47:12;23.91;15.29
70321;DHT22;61127;55.826;37.046;2023-05-15T14:49:39;23.82;15.08
70321;DHT22;61127;55.826;37.046;2023-05-15T14:52:07;23.67;14.94
70321;DHT22;61127;55.826;37.046;2023-05-15T14:54:34;23.56;15.52
70321;DHT22;61127;55.826;37.046;2023-05-15T14:57:01;23.46;16.08
70321;DHT22;61127;55.826;37.046;2023-05-15T14:59:27;23.37;15.84
70321;DHT22;61127;55.826;37.046;2023-05-15T15:01:53;23.28;16.19
70321;DHT22;61127;55.826;37.046;2023-05-15T15:04:19;23.13;15.79
70321;DHT22;61127;55.826;37.046;2023-05-15T15:06:48;23.00;16.00
70321;DHT22;61127;55.826;37.046;2023-05-15T15:09:14;22.87;15.84
70321;DHT22;61127;55.826;37.046;2023-05-15T15:11:40;22.78;16.51
70321;DHT22;61127;55.826;37.046;2023-05-15T15:14:07;22.67;16.90
70321;DHT22;61127;55.826;37.046;2023-05-15T15:16:33;22.62;17.25
70321;DHT22;61127;55.826;37.046;2023-05-15T15:18:59;22.54;17.69
70321;DHT22;61127;55.826;37.046;2023-05-15T15:21:25;22.42;17.20
70321;DHT22;61127;55.826;37.046;2023-05-15T15:23:51;22.37;18.03
70321;DHT22;61127;55.826;37.046;2023-05-15T15:26:17;22.29;18.24
70321;DHT22;61127;55.826;37.046;2023-05-15T15:28:43;22.21;17.93
70321;DHT22;61127;55.826;37.046;2023-05-15T15:31:09;22.10;18.20
70321;DHT22;61127;55.826;37.046;2023-05-15T15:33:36;22.04;18.74
70321;DHT22;61127;55.826;37.046;2023-05-15T15:36:02;21.97;18.17
70321;DHT22;61127;55.826;37.046;2023-05-15T15:38:28;21.90;18.60
70321;DHT22;61127;55.826;37.046;2023-05-15T15:40:54;21.78;18.26
70321;DHT22;61127;55.826;37.046;2023-05-15T15:43:20;21.70;18.52
70321;DHT22;61127;55.826;37.046;2023-05-15T15:45:46;21.66;19.42
70321;DHT22;61127;55.826;37.046;2023-05-15T15:48:12;21.55;19.31
70321;DHT22;61127;55.826;37.046;2023-05-15T15:50:38;21.48;19.89
70321;DHT22;61127;55.826;37.046;2023-05-15T15:53:05;21.38;19.65
70321;DHT22;61127;55.826;37.046;2023-05-15T15:55:31;21.31;19.73
70321;DHT22;61127;55.826;37.046;2023-05-15T15:57:57;21.19;19.79
70321;DHT22;61127;55.826;37.046;2023-05-15T16:00:23;21.08;20.24
70321;DHT22;61127;55.826;37.046;2023-05-15T16:02:56;21.03;20.31
70321;DHT22;61127;55.826;37.046;2023-05-15T16:05:33;20.91;20.36
70321;DHT22;61127;55.826;37.046;2023-05-15T16:07:59;20.85;20.68
70321;DHT22;61127;55.826;37.046;2023-05-15T16:10:25;20.77;21.05
70321;DHT22;61127;55.826;37.046;2023-05-15T16:12:51;20.71;20.77
70321;DHT22;61127;55.826;37.046;2023-05-15T16:15:17;20.64;21.44
70321;DHT22;61127;55.826;37.046;2023-05-15T16:17:43;20.55;21.18
70321;DHT22;61127;55.826;37.046;2023-05-15T16:20:10;20.46;21.64
70321;DHT22;61127;55.826;37.046;2023-05-15T16:22:36;20.39;21.65
70321;DHT22;61127;55.826;37.046;2023-05-15T16:25:02;20.29;21.96
70321;DHT22;61127;55.826;37.046;2023-05-15T16:27:30;20.21;21.81
70321;DHT22;61127;55.826;37.046;2023-05-15T16:29:56;20.11;22.36
70321;DHT22;61127;55.826;37.046;2023-05-15T16:32:22;20.05;22.58
70321;DHT22;61127;55.826;37.046;2023-05-15T16:34:49;19.99;22.72
70321;DHT22;61127;55.826;37.046;2023-05-15T16:37:15;19.91;22.95
70321;DHT22;61127;55.826;37.046;2023-05-15T16:39:41;19.80;22.92
70321;DHT22;61127;55.826;37.046;2023-05-15T16:42:07;19.72;23.23
70321;DHT22;61127;55.826;37.046;2023-05-15T16:44:33;19.62;23.03
70321;DHT22;61127;55.826;37.046;2023-05-15T16:46:59;19.53;23.21
70321;DHT22;61127;55.826;37.046;2023-05-15T16:49:26;19.46;23.62
70321;DHT22;61127;55.826;37.046;2023-05-15T16:51:52;19.39;25.35
70321;DHT22;61127;55.826;37.046;2023-05-15T16:54:19;19.26;24.33
70321;DHT22;61127;55.826;37.046;2023-05-15T16:56:45;19.17;24.66
70321;DHT22;61127;55.826;37.046;2023-05-15T16:59:11;19.08;25.83
70321;DHT22;61127;55.826;37.046;2023-05-15T17:01:37;18.99;25.85
70321;DHT22;61127;55.826;37.046;2023-05-15T17:04:03;18.91;26.31
70321;DHT22;61127;55.826;37.046;2023-05-15T17:06:29;18.80;25.91
70321;DHT22;61127;55.826;37.046;2023-05-15T17:08:55;18.69;27.02
70321;DHT22;61127;55.826;37.046;2023-05-15T17:11:21;18.57;27.12
70321;DHT22;61127;55.826;37.046;2023-05-15T17:13:47;18.47;27.33